Dexter, Iowa
Current Conditions -  °F | °C
As of 2:55 AM on Wednesday 22 Oct 2014 (Local Time) from KPRO Reporting Station
Clear Clear  
Wind Chill: 40°   Ceiling: Unl
Heat Index: 44°   Visibility: 10mi
Dew Point: 40°   Wind: 7mph
Humidity: 87%   Direction: 120°ESE
Pressure: 30.17"   Gusts: NA
Location:  41.52°N, 94.23°W
Report Text: KPRO 220755Z AUTO 12006KT 10SM CLR 07/05 A3017 RMK AO2 T00650045
Loading
Personal Weather Stations






























Interactive Weather Map
Tropical Storm Tracking
New forecast layout! Learn more

10-Day Weather Forecast

Advertisements
Track Severe Weather on mobile